sensor_id;sensor_type;location;lat;lon;timestamp;P1;durP1;ratioP1;P2;durP2;ratioP2
71914;SDS011;60387;49.994;14.660;2022-12-24T00:00:56;8.47;;;2.60;;
71914;SDS011;60387;49.994;14.660;2022-12-24T00:03:30;7.05;;;2.03;;
71914;SDS011;60387;49.994;14.660;2022-12-24T00:06:07;5.23;;;1.73;;
71914;SDS011;60387;49.994;14.660;2022-12-24T00:08:42;7.70;;;2.35;;
71914;SDS011;60387;49.994;14.660;2022-12-24T00:11:15;7.70;;;2.33;;
71914;SDS011;60387;49.994;14.660;2022-12-24T00:13:49;6.28;;;1.80;;
71914;SDS011;60387;49.994;14.660;2022-12-24T00:16:22;7.20;;;2.20;;
71914;SDS011;60387;49.994;14.660;2022-12-24T00:18:56;7.47;;;1.70;;
71914;SDS011;60387;49.994;14.660;2022-12-24T00:21:29;6.97;;;1.73;;
71914;SDS011;60387;49.994;14.660;2022-12-24T00:24:02;7.23;;;2.13;;
71914;SDS011;60387;49.994;14.660;2022-12-24T00:26:36;7.93;;;1.98;;
71914;SDS011;60387;49.994;14.660;2022-12-24T00:29:09;7.78;;;1.85;;
71914;SDS011;60387;49.994;14.660;2022-12-24T00:31:43;7.17;;;1.70;;
71914;SDS011;60387;49.994;14.660;2022-12-24T00:34:17;5.37;;;1.50;;
71914;SDS011;60387;49.994;14.660;2022-12-24T00:36:50;5.17;;;1.40;;
71914;SDS011;60387;49.994;14.660;2022-12-24T00:39:24;5.95;;;1.00;;
71914;SDS011;60387;49.994;14.660;2022-12-24T00:41:57;5.27;;;1.00;;
71914;SDS011;60387;49.994;14.660;2022-12-24T00:44:30;3.50;;;0.90;;
71914;SDS011;60387;49.994;14.660;2022-12-24T00:47:03;4.60;;;0.90;;
71914;SDS011;60387;49.994;14.660;2022-12-24T00:49:37;4.87;;;1.00;;
71914;SDS011;60387;49.994;14.660;2022-12-24T00:52:10;4.73;;;0.80;;
71914;SDS011;60387;49.994;14.660;2022-12-24T00:54:43;3.87;;;0.67;;
71914;SDS011;60387;49.994;14.660;2022-12-24T00:57:17;4.03;;;0.60;;
71914;SDS011;60387;49.994;14.660;2022-12-24T00:59:50;6.27;;;0.90;;
71914;SDS011;60387;49.994;14.660;2022-12-24T01:02:23;5.17;;;1.10;;
71914;SDS011;60387;49.994;14.660;2022-12-24T01:04:56;4.03;;;0.80;;
71914;SDS011;60387;49.994;14.660;2022-12-24T01:07:30;5.77;;;0.80;;
71914;SDS011;60387;49.994;14.660;2022-12-24T01:10:03;3.78;;;0.70;;
71914;SDS011;60387;49.994;14.660;2022-12-24T01:12:38;2.90;;;0.70;;
71914;SDS011;60387;49.994;14.660;2022-12-24T01:15:12;4.93;;;0.80;;
71914;SDS011;60387;49.994;14.660;2022-12-24T01:17:47;2.65;;;0.70;;
71914;SDS011;60387;49.994;14.660;2022-12-24T01:20:20;3.23;;;0.70;;
71914;SDS011;60387;49.994;14.660;2022-12-24T01:22:54;2.27;;;0.50;;
71914;SDS011;60387;49.994;14.660;2022-12-24T01:25:27;4.57;;;0.70;;
71914;SDS011;60387;49.994;14.660;2022-12-24T01:28:00;2.93;;;0.67;;
71914;SDS011;60387;49.994;14.660;2022-12-24T01:30:33;2.80;;;0.50;;
71914;SDS011;60387;49.994;14.660;2022-12-24T01:33:07;1.57;;;0.30;;
71914;SDS011;60387;49.994;14.660;2022-12-24T01:35:40;3.50;;;0.70;;
71914;SDS011;60387;49.994;14.660;2022-12-24T01:38:14;3.38;;;0.52;;
71914;SDS011;60387;49.994;14.660;2022-12-24T01:40:47;5.20;;;0.60;;
71914;SDS011;60387;49.994;14.660;2022-12-24T01:43:21;2.63;;;0.60;;
71914;SDS011;60387;49.994;14.660;2022-12-24T01:54:14;4.05;;;0.40;;
71914;SDS011;60387;49.994;14.660;2022-12-24T01:57:02;3.45;;;0.50;;
71914;SDS011;60387;49.994;14.660;2022-12-24T01:59:40;1.92;;;0.43;;
71914;SDS011;60387;49.994;14.660;2022-12-24T02:02:17;3.13;;;0.50;;
71914;SDS011;60387;49.994;14.660;2022-12-24T02:07:30;3.95;;;0.50;;
71914;SDS011;60387;49.994;14.660;2022-12-24T02:10:03;3.73;;;0.40;;
71914;SDS011;60387;49.994;14.660;2022-12-24T02:12:38;2.05;;;0.40;;
71914;SDS011;60387;49.994;14.660;2022-12-24T02:15:14;2.65;;;0.40;;
71914;SDS011;60387;49.994;14.660;2022-12-24T02:23:37;3.13;;;0.43;;
71914;SDS011;60387;49.994;14.660;2022-12-24T02:32:45;3.53;;;0.37;;
71914;SDS011;60387;49.994;14.660;2022-12-24T02:35:22;3.40;;;0.55;;
71914;SDS011;60387;49.994;14.660;2022-12-24T02:38:10;4.22;;;0.40;;
71914;SDS011;60387;49.994;14.660;2022-12-24T02:40:53;3.20;;;0.40;;
71914;SDS011;60387;49.994;14.660;2022-12-24T02:43:33;3.53;;;0.40;;
71914;SDS011;60387;49.994;14.660;2022-12-24T02:46:15;9.50;;;0.93;;
71914;SDS011;60387;49.994;14.660;2022-12-24T02:48:52;3.92;;;0.70;;
71914;SDS011;60387;49.994;14.660;2022-12-24T02:51:27;2.25;;;0.50;;
71914;SDS011;60387;49.994;14.660;2022-12-24T02:54:00;4.70;;;0.40;;
71914;SDS011;60387;49.994;14.660;2022-12-24T02:56:41;5.53;;;0.40;;
71914;SDS011;60387;49.994;14.660;2022-12-24T03:07:32;4.82;;;0.40;;
71914;SDS011;60387;49.994;14.660;2022-12-24T03:12:49;2.33;;;0.40;;
71914;SDS011;60387;49.994;14.660;2022-12-24T03:15:27;2.78;;;0.40;;
71914;SDS011;60387;49.994;14.660;2022-12-24T03:18:03;2.00;;;0.47;;
71914;SDS011;60387;49.994;14.660;2022-12-24T03:20:40;1.63;;;0.40;;
71914;SDS011;60387;49.994;14.660;2022-12-24T03:23:16;3.00;;;0.47;;
71914;SDS011;60387;49.994;14.660;2022-12-24T03:25:49;2.70;;;0.30;;
71914;SDS011;60387;49.994;14.660;2022-12-24T03:28:23;1.93;;;0.30;;
71914;SDS011;60387;49.994;14.660;2022-12-24T03:31:03;5.72;;;0.65;;
71914;SDS011;60387;49.994;14.660;2022-12-24T03:33:37;5.53;;;0.40;;
71914;SDS011;60387;49.994;14.660;2022-12-24T03:36:11;3.55;;;0.40;;
71914;SDS011;60387;49.994;14.660;2022-12-24T03:38:44;5.83;;;0.50;;
71914;SDS011;60387;49.994;14.660;2022-12-24T03:41:18;4.33;;;0.40;;
71914;SDS011;60387;49.994;14.660;2022-12-24T03:43:51;3.47;;;0.30;;
71914;SDS011;60387;49.994;14.660;2022-12-24T03:46:24;3.97;;;0.40;;
71914;SDS011;60387;49.994;14.660;2022-12-24T03:48:57;2.70;;;0.27;;
71914;SDS011;60387;49.994;14.660;2022-12-24T03:51:31;3.30;;;0.30;;
71914;SDS011;60387;49.994;14.660;2022-12-24T03:54:04;3.55;;;0.40;;
71914;SDS011;60387;49.994;14.660;2022-12-24T03:56:37;4.87;;;0.70;;
71914;SDS011;60387;49.994;14.660;2022-12-24T03:59:11;4.70;;;0.50;;
71914;SDS011;60387;49.994;14.660;2022-12-24T04:01:44;3.27;;;0.50;;
71914;SDS011;60387;49.994;14.660;2022-12-24T04:04:17;5.27;;;0.50;;
71914;SDS011;60387;49.994;14.660;2022-12-24T04:06:51;3.50;;;0.37;;
71914;SDS011;60387;49.994;14.660;2022-12-24T04:09:24;4.23;;;0.50;;
71914;SDS011;60387;49.994;14.660;2022-12-24T04:11:57;3.10;;;0.53;;
71914;SDS011;60387;49.994;14.660;2022-12-24T04:14:30;6.27;;;0.63;;
71914;SDS011;60387;49.994;14.660;2022-12-24T04:17:04;5.10;;;0.63;;
71914;SDS011;60387;49.994;14.660;2022-12-24T04:19:37;5.63;;;0.52;;
71914;SDS011;60387;49.994;14.660;2022-12-24T04:22:10;5.95;;;0.60;;
71914;SDS011;60387;49.994;14.660;2022-12-24T04:24:44;6.22;;;0.55;;
71914;SDS011;60387;49.994;14.660;2022-12-24T04:27:17;3.17;;;0.50;;
71914;SDS011;60387;49.994;14.660;2022-12-24T04:29:50;2.07;;;0.33;;
71914;SDS011;60387;49.994;14.660;2022-12-24T04:32:24;6.20;;;0.63;;
71914;SDS011;60387;49.994;14.660;2022-12-24T04:34:58;4.50;;;0.33;;
71914;SDS011;60387;49.994;14.660;2022-12-24T04:37:32;5.13;;;0.40;;
71914;SDS011;60387;49.994;14.660;2022-12-24T04:40:06;3.60;;;0.30;;
71914;SDS011;60387;49.994;14.660;2022-12-24T04:42:39;2.53;;;0.35;;
71914;SDS011;60387;49.994;14.660;2022-12-24T04:45:13;1.90;;;0.30;;
71914;SDS011;60387;49.994;14.660;2022-12-24T04:47:46;5.67;;;0.63;;
71914;SDS011;60387;49.994;14.660;2022-12-24T04:50:19;5.80;;;0.70;;
71914;SDS011;60387;49.994;14.660;2022-12-24T04:52:53;6.70;;;0.40;;
71914;SDS011;60387;49.994;14.660;2022-12-24T04:55:26;9.10;;;0.93;;
71914;SDS011;60387;49.994;14.660;2022-12-24T04:57:59;5.57;;;0.40;;
71914;SDS011;60387;49.994;14.660;2022-12-24T05:00:32;4.50;;;0.43;;
71914;SDS011;60387;49.994;14.660;2022-12-24T05:03:06;5.17;;;0.47;;
71914;SDS011;60387;49.994;14.660;2022-12-24T05:05:39;4.30;;;0.43;;
71914;SDS011;60387;49.994;14.660;2022-12-24T05:08:12;5.83;;;0.83;;
71914;SDS011;60387;49.994;14.660;2022-12-24T05:10:53;5.35;;;0.40;;
71914;SDS011;60387;49.994;14.660;2022-12-24T05:13:27;4.00;;;0.40;;
71914;SDS011;60387;49.994;14.660;2022-12-24T05:16:00;5.30;;;0.57;;
71914;SDS011;60387;49.994;14.660;2022-12-24T05:18:34;4.70;;;0.60;;
71914;SDS011;60387;49.994;14.660;2022-12-24T05:21:12;4.70;;;0.60;;
71914;SDS011;60387;49.994;14.660;2022-12-24T05:23:47;3.63;;;0.43;;
71914;SDS011;60387;49.994;14.660;2022-12-24T05:26:24;3.73;;;0.43;;
71914;SDS011;60387;49.994;14.660;2022-12-24T05:29:04;2.30;;;0.40;;
71914;SDS011;60387;49.994;14.660;2022-12-24T05:31:39;1.83;;;0.30;;
71914;SDS011;60387;49.994;14.660;2022-12-24T05:34:13;4.37;;;0.40;;
71914;SDS011;60387;49.994;14.660;2022-12-24T05:36:48;4.65;;;0.45;;
71914;SDS011;60387;49.994;14.660;2022-12-24T05:39:21;4.60;;;0.33;;
71914;SDS011;60387;49.994;14.660;2022-12-24T05:41:54;3.30;;;0.40;;
71914;SDS011;60387;49.994;14.660;2022-12-24T05:44:28;1.73;;;0.20;;
71914;SDS011;60387;49.994;14.660;2022-12-24T05:47:01;1.93;;;0.30;;
71914;SDS011;60387;49.994;14.660;2022-12-24T05:49:34;4.30;;;0.30;;
71914;SDS011;60387;49.994;14.660;2022-12-24T05:52:08;4.07;;;0.40;;
71914;SDS011;60387;49.994;14.660;2022-12-24T05:54:41;3.65;;;0.50;;
71914;SDS011;60387;49.994;14.660;2022-12-24T05:57:14;4.63;;;0.40;;
71914;SDS011;60387;49.994;14.660;2022-12-24T05:59:48;1.13;;;0.20;;
71914;SDS011;60387;49.994;14.660;2022-12-24T06:02:21;4.50;;;0.40;;
71914;SDS011;60387;49.994;14.660;2022-12-24T06:04:55;5.83;;;0.30;;
71914;SDS011;60387;49.994;14.660;2022-12-24T06:07:28;6.40;;;0.50;;
71914;SDS011;60387;49.994;14.660;2022-12-24T06:10:01;3.57;;;0.50;;
71914;SDS011;60387;49.994;14.660;2022-12-24T06:12:35;3.88;;;0.75;;
71914;SDS011;60387;49.994;14.660;2022-12-24T06:15:08;5.57;;;0.52;;
71914;SDS011;60387;49.994;14.660;2022-12-24T06:17:41;4.15;;;0.40;;
71914;SDS011;60387;49.994;14.660;2022-12-24T06:20:15;5.50;;;0.60;;
71914;SDS011;60387;49.994;14.660;2022-12-24T06:22:48;4.23;;;0.37;;
71914;SDS011;60387;49.994;14.660;2022-12-24T06:25:21;3.67;;;0.40;;
71914;SDS011;60387;49.994;14.660;2022-12-24T06:27:55;3.17;;;0.40;;
71914;SDS011;60387;49.994;14.660;2022-12-24T06:30:28;6.67;;;0.57;;
71914;SDS011;60387;49.994;14.660;2022-12-24T06:33:01;3.50;;;0.30;;
71914;SDS011;60387;49.994;14.660;2022-12-24T06:35:34;3.40;;;0.60;;
71914;SDS011;60387;49.994;14.660;2022-12-24T06:38:08;2.37;;;0.30;;
71914;SDS011;60387;49.994;14.660;2022-12-24T06:40:42;6.37;;;0.43;;
71914;SDS011;60387;49.994;14.660;2022-12-24T06:43:17;3.60;;;0.50;;
71914;SDS011;60387;49.994;14.660;2022-12-24T06:45:50;3.50;;;0.37;;
71914;SDS011;60387;49.994;14.660;2022-12-24T06:48:23;6.83;;;0.63;;
71914;SDS011;60387;49.994;14.660;2022-12-24T06:50:57;8.07;;;0.43;;
71914;SDS011;60387;49.994;14.660;2022-12-24T06:53:30;5.67;;;0.50;;
71914;SDS011;60387;49.994;14.660;2022-12-24T06:56:06;2.58;;;0.22;;
71914;SDS011;60387;49.994;14.660;2022-12-24T06:58:41;4.55;;;0.40;;
71914;SDS011;60387;49.994;14.660;2022-12-24T07:01:15;4.00;;;0.57;;
71914;SDS011;60387;49.994;14.660;2022-12-24T07:03:49;4.05;;;0.38;;
71914;SDS011;60387;49.994;14.660;2022-12-24T07:06:27;3.13;;;0.40;;
71914;SDS011;60387;49.994;14.660;2022-12-24T07:09:01;4.47;;;0.68;;
71914;SDS011;60387;49.994;14.660;2022-12-24T07:11:35;8.05;;;0.80;;
71914;SDS011;60387;49.994;14.660;2022-12-24T07:14:08;11.75;;;1.15;;
71914;SDS011;60387;49.994;14.660;2022-12-24T07:16:41;7.63;;;0.60;;
71914;SDS011;60387;49.994;14.660;2022-12-24T07:19:15;8.18;;;1.38;;
71914;SDS011;60387;49.994;14.660;2022-12-24T07:21:48;11.45;;;1.17;;
71914;SDS011;60387;49.994;14.660;2022-12-24T07:24:21;6.45;;;0.98;;
71914;SDS011;60387;49.994;14.660;2022-12-24T07:26:55;8.70;;;1.10;;
71914;SDS011;60387;49.994;14.660;2022-12-24T07:29:28;5.27;;;0.97;;
71914;SDS011;60387;49.994;14.660;2022-12-24T07:32:01;6.07;;;0.90;;
71914;SDS011;60387;49.994;14.660;2022-12-24T07:34:34;5.73;;;0.70;;
71914;SDS011;60387;49.994;14.660;2022-12-24T07:37:08;5.30;;;0.87;;
71914;SDS011;60387;49.994;14.660;2022-12-24T07:39:41;6.03;;;0.90;;
71914;SDS011;60387;49.994;14.660;2022-12-24T07:42:14;5.63;;;0.90;;
71914;SDS011;60387;49.994;14.660;2022-12-24T07:44:48;2.73;;;0.40;;
71914;SDS011;60387;49.994;14.660;2022-12-24T07:47:21;4.30;;;0.67;;
71914;SDS011;60387;49.994;14.660;2022-12-24T07:49:54;6.93;;;0.50;;
71914;SDS011;60387;49.994;14.660;2022-12-24T07:52:27;5.63;;;0.53;;
71914;SDS011;60387;49.994;14.660;2022-12-24T07:55:01;7.97;;;1.13;;
71914;SDS011;60387;49.994;14.660;2022-12-24T07:57:34;9.67;;;0.63;;
71914;SDS011;60387;49.994;14.660;2022-12-24T08:00:07;6.22;;;0.65;;
71914;SDS011;60387;49.994;14.660;2022-12-24T08:02:41;7.70;;;0.60;;
71914;SDS011;60387;49.994;14.660;2022-12-24T08:05:14;6.27;;;1.10;;
71914;SDS011;60387;49.994;14.660;2022-12-24T08:07:47;7.27;;;0.90;;
71914;SDS011;60387;49.994;14.660;2022-12-24T08:10:21;6.40;;;0.60;;
71914;SDS011;60387;49.994;14.660;2022-12-24T08:12:54;7.93;;;0.70;;
71914;SDS011;60387;49.994;14.660;2022-12-24T08:15:27;8.47;;;0.90;;
71914;SDS011;60387;49.994;14.660;2022-12-24T08:18:00;8.00;;;0.90;;
71914;SDS011;60387;49.994;14.660;2022-12-24T08:20:36;4.43;;;0.80;;
71914;SDS011;60387;49.994;14.660;2022-12-24T08:23:12;8.00;;;0.98;;
71914;SDS011;60387;49.994;14.660;2022-12-24T08:25:46;5.77;;;0.97;;
71914;SDS011;60387;49.994;14.660;2022-12-24T08:28:20;6.80;;;0.80;;
71914;SDS011;60387;49.994;14.660;2022-12-24T08:30:53;3.83;;;0.43;;
71914;SDS011;60387;49.994;14.660;2022-12-24T08:33:27;6.07;;;0.70;;
71914;SDS011;60387;49.994;14.660;2022-12-24T08:36:00;8.87;;;1.27;;
71914;SDS011;60387;49.994;14.660;2022-12-24T08:38:34;5.97;;;0.50;;
71914;SDS011;60387;49.994;14.660;2022-12-24T08:41:08;7.30;;;0.70;;
71914;SDS011;60387;49.994;14.660;2022-12-24T08:43:41;6.73;;;0.80;;
71914;SDS011;60387;49.994;14.660;2022-12-24T08:46:14;6.97;;;0.77;;
71914;SDS011;60387;49.994;14.660;2022-12-24T08:48:47;7.17;;;0.87;;
71914;SDS011;60387;49.994;14.660;2022-12-24T08:51:21;5.17;;;0.77;;
71914;SDS011;60387;49.994;14.660;2022-12-24T08:53:54;7.15;;;1.00;;
71914;SDS011;60387;49.994;14.660;2022-12-24T08:56:27;8.27;;;0.70;;
71914;SDS011;60387;49.994;14.660;2022-12-24T08:59:01;5.07;;;0.70;;
71914;SDS011;60387;49.994;14.660;2022-12-24T09:01:34;7.37;;;0.93;;
71914;SDS011;60387;49.994;14.660;2022-12-24T09:04:07;7.13;;;0.63;;
71914;SDS011;60387;49.994;14.660;2022-12-24T09:06:41;8.83;;;1.00;;
71914;SDS011;60387;49.994;14.660;2022-12-24T09:09:14;8.50;;;0.90;;
71914;SDS011;60387;49.994;14.660;2022-12-24T09:11:47;7.33;;;0.80;;
71914;SDS011;60387;49.994;14.660;2022-12-24T09:14:21;6.00;;;0.80;;
71914;SDS011;60387;49.994;14.660;2022-12-24T09:16:54;6.43;;;0.70;;
71914;SDS011;60387;49.994;14.660;2022-12-24T09:19:27;7.80;;;1.00;;
71914;SDS011;60387;49.994;14.660;2022-12-24T09:22:01;8.05;;;1.25;;
71914;SDS011;60387;49.994;14.660;2022-12-24T09:24:34;5.60;;;0.90;;
71914;SDS011;60387;49.994;14.660;2022-12-24T09:27:07;9.67;;;1.00;;
71914;SDS011;60387;49.994;14.660;2022-12-24T09:29:40;6.67;;;1.00;;
71914;SDS011;60387;49.994;14.660;2022-12-24T09:32:14;5.63;;;0.90;;
71914;SDS011;60387;49.994;14.660;2022-12-24T09:34:47;5.30;;;0.90;;
71914;SDS011;60387;49.994;14.660;2022-12-24T09:37:20;7.27;;;0.80;;
71914;SDS011;60387;49.994;14.660;2022-12-24T09:39:54;10.50;;;1.23;;
71914;SDS011;60387;49.994;14.660;2022-12-24T09:42:31;8.37;;;1.53;;
71914;SDS011;60387;49.994;14.660;2022-12-24T09:45:27;14.25;;;3.83;;
71914;SDS011;60387;49.994;14.660;2022-12-24T09:48:08;7.63;;;1.35;;
71914;SDS011;60387;49.994;14.660;2022-12-24T09:50:51;8.23;;;1.30;;
71914;SDS011;60387;49.994;14.660;2022-12-24T09:54:04;16.13;;;5.35;;
71914;SDS011;60387;49.994;14.660;2022-12-24T09:56:44;32.53;;;12.10;;
71914;SDS011;60387;49.994;14.660;2022-12-24T09:59:20;8.13;;;1.80;;
71914;SDS011;60387;49.994;14.660;2022-12-24T10:01:56;7.88;;;1.20;;
71914;SDS011;60387;49.994;14.660;2022-12-24T10:04:29;8.43;;;1.43;;
71914;SDS011;60387;49.994;14.660;2022-12-24T10:07:15;8.90;;;1.80;;
71914;SDS011;60387;49.994;14.660;2022-12-24T10:15:55;9.70;;;1.60;;
71914;SDS011;60387;49.994;14.660;2022-12-24T10:21:53;7.43;;;1.20;;
71914;SDS011;60387;49.994;14.660;2022-12-24T10:24:49;9.77;;;2.33;;
71914;SDS011;60387;49.994;14.660;2022-12-24T10:27:36;10.98;;;2.63;;
71914;SDS011;60387;49.994;14.660;2022-12-24T10:30:13;12.77;;;2.17;;
71914;SDS011;60387;49.994;14.660;2022-12-24T10:32:50;8.77;;;1.25;;
71914;SDS011;60387;49.994;14.660;2022-12-24T10:35:25;11.30;;;1.67;;
71914;SDS011;60387;49.994;14.660;2022-12-24T10:38:04;9.32;;;1.75;;
71914;SDS011;60387;49.994;14.660;2022-12-24T10:40:44;9.70;;;1.30;;
71914;SDS011;60387;49.994;14.660;2022-12-24T10:43:21;6.03;;;1.00;;
71914;SDS011;60387;49.994;14.660;2022-12-24T10:46:00;7.47;;;1.00;;
71914;SDS011;60387;49.994;14.660;2022-12-24T10:48:43;9.13;;;1.38;;
71914;SDS011;60387;49.994;14.660;2022-12-24T10:54:26;5.00;;;0.87;;
71914;SDS011;60387;49.994;14.660;2022-12-24T10:57:01;5.78;;;0.80;;
71914;SDS011;60387;49.994;14.660;2022-12-24T11:03:03;7.20;;;0.87;;
71914;SDS011;60387;49.994;14.660;2022-12-24T11:08:03;6.60;;;1.05;;
71914;SDS011;60387;49.994;14.660;2022-12-24T11:10:39;7.03;;;1.52;;
71914;SDS011;60387;49.994;14.660;2022-12-24T11:13:21;7.22;;;1.13;;
71914;SDS011;60387;49.994;14.660;2022-12-24T11:15:59;3.47;;;0.70;;
71914;SDS011;60387;49.994;14.660;2022-12-24T11:18:34;8.00;;;1.48;;
71914;SDS011;60387;49.994;14.660;2022-12-24T11:21:10;5.50;;;1.00;;
71914;SDS011;60387;49.994;14.660;2022-12-24T11:23:48;8.27;;;1.40;;
71914;SDS011;60387;49.994;14.660;2022-12-24T11:26:24;8.55;;;1.48;;
71914;SDS011;60387;49.994;14.660;2022-12-24T11:29:13;10.93;;;1.85;;
71914;SDS011;60387;49.994;14.660;2022-12-24T11:31:46;7.68;;;1.33;;
71914;SDS011;60387;49.994;14.660;2022-12-24T11:34:22;6.80;;;0.75;;
71914;SDS011;60387;49.994;14.660;2022-12-24T11:37:08;6.23;;;1.20;;
71914;SDS011;60387;49.994;14.660;2022-12-24T11:39:45;5.07;;;0.70;;
71914;SDS011;60387;49.994;14.660;2022-12-24T11:42:31;6.60;;;0.70;;
71914;SDS011;60387;49.994;14.660;2022-12-24T11:45:14;6.00;;;0.93;;
71914;SDS011;60387;49.994;14.660;2022-12-24T11:47:52;4.68;;;0.80;;
71914;SDS011;60387;49.994;14.660;2022-12-24T11:50:34;4.27;;;0.93;;
71914;SDS011;60387;49.994;14.660;2022-12-24T11:53:10;5.90;;;1.00;;
71914;SDS011;60387;49.994;14.660;2022-12-24T11:56:00;7.07;;;0.90;;
71914;SDS011;60387;49.994;14.660;2022-12-24T12:01:47;6.10;;;1.00;;
71914;SDS011;60387;49.994;14.660;2022-12-24T12:04:29;6.03;;;0.90;;
71914;SDS011;60387;49.994;14.660;2022-12-24T12:07:05;5.22;;;0.90;;
71914;SDS011;60387;49.994;14.660;2022-12-24T12:09:49;6.13;;;0.80;;
71914;SDS011;60387;49.994;14.660;2022-12-24T12:12:30;7.88;;;0.82;;
71914;SDS011;60387;49.994;14.660;2022-12-24T12:18:15;6.97;;;0.93;;
71914;SDS011;60387;49.994;14.660;2022-12-24T12:20:53;12.70;;;1.70;;
71914;SDS011;60387;49.994;14.660;2022-12-24T12:23:33;7.72;;;1.00;;
71914;SDS011;60387;49.994;14.660;2022-12-24T12:28:52;6.90;;;1.38;;
71914;SDS011;60387;49.994;14.660;2022-12-24T12:31:49;6.65;;;1.15;;
71914;SDS011;60387;49.994;14.660;2022-12-24T12:34:30;6.28;;;0.80;;
71914;SDS011;60387;49.994;14.660;2022-12-24T12:37:15;4.70;;;1.05;;
71914;SDS011;60387;49.994;14.660;2022-12-24T12:39:56;6.73;;;1.27;;
71914;SDS011;60387;49.994;14.660;2022-12-24T12:42:33;11.40;;;1.60;;
71914;SDS011;60387;49.994;14.660;2022-12-24T12:45:21;9.07;;;1.93;;
71914;SDS011;60387;49.994;14.660;2022-12-24T12:48:11;7.38;;;1.20;;
71914;SDS011;60387;49.994;14.660;2022-12-24T12:51:07;8.00;;;1.30;;
71914;SDS011;60387;49.994;14.660;2022-12-24T12:54:10;9.52;;;1.98;;
71914;SDS011;60387;49.994;14.660;2022-12-24T12:56:50;10.02;;;1.30;;
71914;SDS011;60387;49.994;14.660;2022-12-24T13:08:43;8.68;;;1.20;;
71914;SDS011;60387;49.994;14.660;2022-12-24T13:11:58;8.63;;;1.33;;
71914;SDS011;60387;49.994;14.660;2022-12-24T13:20:31;5.15;;;0.85;;
71914;SDS011;60387;49.994;14.660;2022-12-24T13:23:12;4.85;;;0.90;;
71914;SDS011;60387;49.994;14.660;2022-12-24T13:25:50;4.72;;;0.75;;
71914;SDS011;60387;49.994;14.660;2022-12-24T13:33:51;6.25;;;1.20;;
71914;SDS011;60387;49.994;14.660;2022-12-24T13:36:59;5.78;;;0.93;;
71914;SDS011;60387;49.994;14.660;2022-12-24T13:53:30;4.47;;;1.00;;
71914;SDS011;60387;49.994;14.660;2022-12-24T13:58:47;6.27;;;1.50;;
71914;SDS011;60387;49.994;14.660;2022-12-24T14:01:31;8.07;;;1.90;;
71914;SDS011;60387;49.994;14.660;2022-12-24T14:04:08;8.23;;;1.42;;
71914;SDS011;60387;49.994;14.660;2022-12-24T14:06:52;8.52;;;1.65;;
71914;SDS011;60387;49.994;14.660;2022-12-24T14:09:28;8.23;;;1.70;;
71914;SDS011;60387;49.994;14.660;2022-12-24T14:12:13;8.70;;;1.73;;
71914;SDS011;60387;49.994;14.660;2022-12-24T14:18:22;11.98;;;2.60;;
71914;SDS011;60387;49.994;14.660;2022-12-24T14:20:56;10.30;;;2.83;;
71914;SDS011;60387;49.994;14.660;2022-12-24T14:23:39;12.23;;;3.40;;
71914;SDS011;60387;49.994;14.660;2022-12-24T14:26:18;13.43;;;3.83;;
71914;SDS011;60387;49.994;14.660;2022-12-24T14:28:57;9.98;;;3.20;;
71914;SDS011;60387;49.994;14.660;2022-12-24T14:31:35;10.20;;;2.47;;
71914;SDS011;60387;49.994;14.660;2022-12-24T14:34:11;16.80;;;4.33;;
71914;SDS011;60387;49.994;14.660;2022-12-24T14:36:45;9.95;;;2.55;;
71914;SDS011;60387;49.994;14.660;2022-12-24T14:39:22;7.63;;;2.42;;
71914;SDS011;60387;49.994;14.660;2022-12-24T14:45:16;9.13;;;2.45;;
71914;SDS011;60387;49.994;14.660;2022-12-24T14:51:19;13.80;;;2.87;;
71914;SDS011;60387;49.994;14.660;2022-12-24T14:56:37;13.20;;;4.05;;
71914;SDS011;60387;49.994;14.660;2022-12-24T14:59:18;13.00;;;4.63;;
71914;SDS011;60387;49.994;14.660;2022-12-24T15:01:52;12.70;;;3.83;;
71914;SDS011;60387;49.994;14.660;2022-12-24T15:04:25;15.60;;;4.03;;
71914;SDS011;60387;49.994;14.660;2022-12-24T15:06:58;11.17;;;3.37;;
71914;SDS011;60387;49.994;14.660;2022-12-24T15:09:31;15.20;;;4.43;;
71914;SDS011;60387;49.994;14.660;2022-12-24T15:12:05;14.27;;;4.50;;
71914;SDS011;60387;49.994;14.660;2022-12-24T15:14:42;13.87;;;5.13;;
71914;SDS011;60387;49.994;14.660;2022-12-24T15:17:16;15.35;;;5.05;;
71914;SDS011;60387;49.994;14.660;2022-12-24T15:19:49;15.87;;;5.03;;
71914;SDS011;60387;49.994;14.660;2022-12-24T15:22:26;16.52;;;5.32;;
71914;SDS011;60387;49.994;14.660;2022-12-24T15:25:15;11.98;;;3.80;;
71914;SDS011;60387;49.994;14.660;2022-12-24T15:27:50;11.13;;;3.13;;
71914;SDS011;60387;49.994;14.660;2022-12-24T15:30:25;12.90;;;3.90;;
71914;SDS011;60387;49.994;14.660;2022-12-24T15:32:59;11.80;;;3.30;;
71914;SDS011;60387;49.994;14.660;2022-12-24T15:35:34;9.43;;;2.47;;
71914;SDS011;60387;49.994;14.660;2022-12-24T15:38:35;11.00;;;2.90;;
71914;SDS011;60387;49.994;14.660;2022-12-24T15:41:24;8.77;;;2.60;;
71914;SDS011;60387;49.994;14.660;2022-12-24T15:44:00;8.68;;;2.38;;
71914;SDS011;60387;49.994;14.660;2022-12-24T15:46:34;9.50;;;2.67;;
71914;SDS011;60387;49.994;14.660;2022-12-24T15:49:12;13.20;;;3.43;;
71914;SDS011;60387;49.994;14.660;2022-12-24T15:51:48;11.05;;;2.83;;
71914;SDS011;60387;49.994;14.660;2022-12-24T15:54:21;10.10;;;2.80;;
71914;SDS011;60387;49.994;14.660;2022-12-24T15:56:55;12.07;;;3.20;;
71914;SDS011;60387;49.994;14.660;2022-12-24T15:59:29;12.50;;;2.10;;
71914;SDS011;60387;49.994;14.660;2022-12-24T16:05:42;9.45;;;1.98;;
71914;SDS011;60387;49.994;14.660;2022-12-24T16:10:47;25.45;;;13.52;;
71914;SDS011;60387;49.994;14.660;2022-12-24T16:13:22;17.67;;;6.22;;
71914;SDS011;60387;49.994;14.660;2022-12-24T16:16:13;11.55;;;2.85;;
71914;SDS011;60387;49.994;14.660;2022-12-24T16:21:30;28.47;;;11.97;;
71914;SDS011;60387;49.994;14.660;2022-12-24T16:24:13;14.23;;;3.97;;
71914;SDS011;60387;49.994;14.660;2022-12-24T16:26:50;13.20;;;4.88;;
71914;SDS011;60387;49.994;14.660;2022-12-24T16:29:24;8.20;;;2.13;;
71914;SDS011;60387;49.994;14.660;2022-12-24T16:31:57;8.37;;;1.90;;
71914;SDS011;60387;49.994;14.660;2022-12-24T16:34:31;7.60;;;1.87;;
71914;SDS011;60387;49.994;14.660;2022-12-24T16:37:04;10.60;;;2.33;;
71914;SDS011;60387;49.994;14.660;2022-12-24T16:39:38;6.57;;;2.10;;
71914;SDS011;60387;49.994;14.660;2022-12-24T16:42:11;12.90;;;2.87;;
71914;SDS011;60387;49.994;14.660;2022-12-24T16:44:44;13.20;;;2.40;;
71914;SDS011;60387;49.994;14.660;2022-12-24T16:47:19;10.68;;;2.60;;
71914;SDS011;60387;49.994;14.660;2022-12-24T16:49:56;8.52;;;2.42;;
71914;SDS011;60387;49.994;14.660;2022-12-24T16:52:30;11.30;;;2.83;;
71914;SDS011;60387;49.994;14.660;2022-12-24T16:55:03;15.73;;;3.80;;
71914;SDS011;60387;49.994;14.660;2022-12-24T16:57:38;13.15;;;4.28;;
71914;SDS011;60387;49.994;14.660;2022-12-24T17:00:16;25.23;;;5.50;;
71914;SDS011;60387;49.994;14.660;2022-12-24T17:02:50;18.73;;;4.80;;
71914;SDS011;60387;49.994;14.660;2022-12-24T17:05:24;19.83;;;5.20;;
71914;SDS011;60387;49.994;14.660;2022-12-24T17:07:58;14.00;;;4.67;;
71914;SDS011;60387;49.994;14.660;2022-12-24T17:10:33;22.25;;;5.78;;
71914;SDS011;60387;49.994;14.660;2022-12-24T17:13:06;12.13;;;4.13;;
71914;SDS011;60387;49.994;14.660;2022-12-24T17:15:40;10.20;;;3.10;;
71914;SDS011;60387;49.994;14.660;2022-12-24T17:18:13;14.15;;;4.25;;
71914;SDS011;60387;49.994;14.660;2022-12-24T17:20:55;13.63;;;4.60;;
71914;SDS011;60387;49.994;14.660;2022-12-24T17:23:32;10.60;;;3.22;;